Time;durP1;ratioP1;P1;durP2;ratioP2;P2;SDS_P1;SDS_P2;PMS_P1;PMS_P2;Temp;Humidity;BMP_temperature;BMP_pressure;BME280_temperature;BME280_humidity;BME280_pressure;Samples;Min_cycle;Max_cycle;Signal;HPM_P1;HPM_P2
2023/03/29 00:01:48;;;;;;;14.97;6.50;;;;;;;3.08;100.00;101528.97;7395305;19;20431;-39
2023/03/29 00:04:21;;;;;;;17.10;5.83;;;;;;;3.01;100.00;101534.34;7396797;19;20455;-36
2023/03/29 00:06:50;;;;;;;16.07;5.70;;;;;;;2.89;100.00;101523.09;7395539;19;20434;-35
2023/03/29 00:09:20;;;;;;;11.07;4.93;;;;;;;2.92;100.00;101525.91;7396310;19;20470;-35
2023/03/29 00:11:49;;;;;;;13.37;5.43;;;;;;;3.04;100.00;101532.06;7394886;19;20404;-35
2023/03/29 00:14:19;;;;;;;13.77;5.37;;;;;;;3.01;100.00;101531.78;7390470;19;20463;-35
2023/03/29 00:16:49;;;;;;;12.33;5.07;;;;;;;3.05;100.00;101532.94;7394470;19;20553;-37
2023/03/29 00:19:21;;;;;;;12.97;5.00;;;;;;;3.01;100.00;101531.78;7392358;19;20395;-36
2023/03/29 00:21:51;;;;;;;21.13;6.10;;;;;;;3.18;100.00;101535.75;7394490;19;21069;-37
2023/03/29 00:24:22;;;;;;;14.13;5.07;;;;;;;3.08;100.00;101506.03;7392708;19;20446;-35
2023/03/29 00:26:52;;;;;;;28.23;8.20;;;;;;;3.12;100.00;101484.22;7395326;19;20801;-36
2023/03/29 00:29:21;;;;;;;18.50;6.20;;;;;;;3.12;100.00;101476.56;7392605;19;20411;-36
2023/03/29 00:31:53;;;;;;;8.53;4.10;;;;;;;2.97;100.00;101468.53;7394422;19;20420;-35
2023/03/29 00:34:29;;;;;;;21.10;6.57;;;;;;;2.94;100.00;101447.91;7394444;19;20403;-35
2023/03/29 00:36:59;;;;;;;11.87;5.13;;;;;;;2.88;100.00;101447.38;7390980;19;20466;-37
2023/03/29 00:39:28;;;;;;;9.40;4.13;;;;;;;2.82;100.00;101443.53;7393288;19;20436;-35
2023/03/29 00:41:58;;;;;;;7.57;3.93;;;;;;;2.84;100.00;101430.94;7392129;19;21029;-36
2023/03/29 00:44:59;;;;;;;9.87;4.40;;;;;;;3.04;100.00;101432.63;7393102;19;20404;-36
2023/03/29 00:47:31;;;;;;;11.57;4.70;;;;;;;3.18;100.00;101423.53;7389856;19;20442;-36
2023/03/29 00:50:07;;;;;;;9.77;4.63;;;;;;;3.54;100.00;101428.97;7393723;19;20931;-35
2023/03/29 00:52:38;;;;;;;14.70;4.50;;;;;;;3.62;100.00;101422.84;7389818;19;20451;-37
2023/03/29 00:55:13;;;;;;;13.47;4.47;;;;;;;3.62;100.00;101394.75;7392634;19;20403;-37
2023/03/29 00:57:48;;;;;;;12.50;4.53;;;;;;;3.53;100.00;101393.13;7390693;19;20426;-37
2023/03/29 01:00:19;;;;;;;13.33;5.50;;;;;;;3.62;100.00;101398.97;7394297;19;20878;-36
2023/03/29 01:02:53;;;;;;;12.30;5.60;;;;;;;3.45;100.00;101387.41;7391932;19;20426;-36
2023/03/29 01:05:29;;;;;;;13.80;4.83;;;;;;;3.69;100.00;101398.69;7393739;19;21191;-37
2023/03/29 01:08:01;;;;;;;9.30;4.87;;;;;;;3.77;100.00;101389.09;7391095;19;20439;-38
2023/03/29 01:10:35;;;;;;;18.10;5.40;;;;;;;3.77;100.00;101383.97;7393430;19;20534;-37
2023/03/29 01:13:08;;;;;;;11.67;5.30;;;;;;;3.70;100.00;101377.47;7394092;19;20479;-36
2023/03/29 01:15:39;;;;;;;8.93;4.33;;;;;;;3.76;100.00;101374.53;7391041;19;20445;-37
2023/03/29 01:18:08;;;;;;;14.40;5.10;;;;;;;3.68;100.00;101380.72;7394975;19;20439;-37
2023/03/29 01:20:52;;;;;;;11.90;5.07;;;;;;;3.76;100.00;101374.53;7397490;19;20399;-37
2023/03/29 01:23:37;;;;;;;13.23;4.70;;;;;;;3.88;100.00;101375.50;7399293;19;20451;-37
2023/03/29 01:26:12;;;;;;;11.40;5.40;;;;;;;4.10;100.00;101372.06;7395892;19;20410;-37
2023/03/29 01:28:47;;;;;;;9.93;5.27;;;;;;;4.26;100.00;101353.72;7399957;19;20459;-36
2023/03/29 01:31:20;;;;;;;13.30;5.47;;;;;;;4.40;100.00;101342.00;7391991;19;20950;-36
2023/03/29 01:33:53;;;;;;;10.47;5.00;;;;;;;4.68;100.00;101323.63;7399959;19;20432;-36
2023/03/29 01:36:27;;;;;;;16.13;5.27;;;;;;;4.90;100.00;101294.53;7396673;19;21177;-37
2023/03/29 01:38:58;;;;;;;9.80;3.93;;;;;;;4.64;100.00;101249.16;7399129;19;20410;-37
2023/03/29 01:41:36;;;;;;;13.47;4.80;;;;;;;4.36;100.00;101227.56;7397607;19;20442;-37
2023/03/29 01:44:13;;;;;;;12.57;5.27;;;;;;;4.46;100.00;101224.91;7399026;19;20411;-37
2023/03/29 01:46:47;;;;;;;17.23;5.40;;;;;;;4.27;100.00;101216.66;7394178;19;20454;-37
2023/03/29 01:49:24;;;;;;;9.90;4.40;;;;;;;4.07;100.00;101204.94;7399666;19;20797;-36
2023/03/29 01:51:58;;;;;;;9.47;5.30;;;;;;;3.95;100.00;101212.56;7396449;19;20471;-36
2023/03/29 01:54:30;;;;;;;9.57;4.60;;;;;;;3.75;100.00;101207.72;7399583;19;20414;-41
2023/03/29 01:57:02;;;;;;;12.60;5.63;;;;;;;3.70;100.00;101215.81;7396590;19;20500;-38
2023/03/29 01:59:36;;;;;;;12.53;5.10;;;;;;;3.75;100.00;101224.72;7399047;19;20399;-37
2023/03/29 02:02:07;;;;;;;8.87;4.93;;;;;;;3.79;100.00;101226.72;7395741;19;20434;-35
2023/03/29 02:04:43;;;;;;;12.53;5.00;;;;;;;3.92;100.00;101223.44;7397659;19;20430;-37
2023/03/29 02:07:13;;;;;;;12.83;4.70;;;;;;;3.95;100.00;101210.91;7395790;19;20799;-35
2023/03/29 02:09:44;;;;;;;9.53;4.40;;;;;;;3.89;100.00;101193.47;7397884;19;20411;-39
2023/03/29 02:12:15;;;;;;;9.50;4.70;;;;;;;3.89;100.00;101178.16;7397245;19;20443;-40
2023/03/29 02:14:48;;;;;;;15.00;4.80;;;;;;;3.76;100.00;101175.44;7397456;19;20411;-41
2023/03/29 02:17:19;;;;;;;10.40;4.70;;;;;;;3.72;100.00;101176.88;7396229;19;20438;-37
2023/03/29 02:19:52;;;;;;;14.53;4.97;;;;;;;3.73;100.00;101177.75;7400426;19;20415;-37
2023/03/29 02:22:25;;;;;;;10.40;5.07;;;;;;;3.72;100.00;101187.09;7397330;19;20451;-37
2023/03/29 02:24:58;;;;;;;12.13;4.87;;;;;;;3.74;100.00;101193.19;7397341;19;20415;-37
2023/03/29 02:27:28;;;;;;;8.93;4.50;;;;;;;3.50;100.00;101182.00;7395953;19;21017;-37
2023/03/29 02:30:00;;;;;;;13.27;4.30;;;;;;;3.26;100.00;101188.59;7398225;19;20991;-36
2023/03/29 02:32:35;;;;;;;13.93;4.20;;;;;;;3.21;100.00;101203.56;7392066;19;20467;-38
2023/03/29 02:35:11;;;;;;;11.23;4.20;;;;;;;3.53;100.00;101207.72;7397435;19;20439;-36
2023/03/29 02:37:43;;;;;;;6.70;4.10;;;;;;;3.97;100.00;101211.03;7395411;19;20484;-35
2023/03/29 02:40:14;;;;;;;10.70;4.80;;;;;;;3.72;100.00;101186.19;7398354;19;20417;-36
2023/03/29 02:42:46;;;;;;;9.73;4.10;;;;;;;3.68;100.00;101186.75;7396166;19;20447;-35
2023/03/29 02:45:18;;;;;;;10.50;4.73;;;;;;;3.72;100.00;101184.53;7397359;19;20420;-36
2023/03/29 02:47:51;;;;;;;10.00;4.30;;;;;;;3.75;100.00;101184.75;7395223;19;20459;-36
2023/03/29 02:50:23;;;;;;;11.90;4.30;;;;;;;3.62;100.00;101171.81;7398556;19;20422;-36
2023/03/29 02:52:55;;;;;;;11.50;4.50;;;;;;;3.52;100.00;101157.47;7396746;19;20438;-36
2023/03/29 02:55:30;;;;;;;8.43;4.17;;;;;;;3.65;100.00;101147.44;7396794;19;20436;-35
2023/03/29 02:58:02;;;;;;;10.40;3.87;;;;;;;3.92;100.00;101137.53;7395224;19;20779;-38
2023/03/29 03:00:34;;;;;;;11.80;3.87;;;;;;;4.01;100.00;101113.44;7396351;19;20391;-37
2023/03/29 03:03:04;;;;;;;8.13;3.87;;;;;;;4.14;100.00;101100.81;7399081;19;20466;-37
2023/03/29 03:05:34;;;;;;;8.80;4.00;;;;;;;4.36;100.00;101074.25;7396395;19;20419;-38
2023/03/29 03:08:06;;;;;;;13.00;4.07;;;;;;;4.29;100.00;101043.94;7395913;19;20473;-37
2023/03/29 03:10:36;;;;;;;10.23;3.90;;;;;;;4.21;100.00;101019.53;7397932;19;20411;-36
2023/03/29 03:13:05;;;;;;;9.00;3.87;;;;;;;3.91;100.00;100992.75;7397668;19;20451;-36
2023/03/29 03:15:41;;;;;;;7.73;3.67;;;;;;;4.31;100.00;101007.50;7396112;19;20423;-36
2023/03/29 03:18:12;;;;;;;7.60;3.53;;;;;;;4.41;100.00;100986.06;7397099;19;20471;-38
2023/03/29 03:20:45;;;;;;;11.30;4.23;;;;;;;4.30;100.00;100946.06;7394530;19;20435;-37
2023/03/29 03:23:17;;;;;;;11.33;3.80;;;;;;;4.23;100.00;100923.44;7396739;19;20427;-36
2023/03/29 03:25:47;;;;;;;10.50;3.27;;;;;;;3.77;100.00;100894.78;7392145;19;20431;-37
2023/03/29 03:28:17;;;;;;;7.70;3.10;;;;;;;3.63;100.00;100875.91;7396719;19;20459;-37
2023/03/29 03:30:49;;;;;;;8.40;4.00;;;;;;;3.74;100.00;100883.47;7392306;19;20951;-37
2023/03/29 03:33:19;;;;;;;10.63;4.10;;;;;;;3.55;100.00;100858.28;7396530;19;20515;-38
2023/03/29 03:35:48;;;;;;;6.70;2.73;;;;;;;3.57;100.00;100852.50;7392891;19;20407;-38
2023/03/29 03:38:18;;;;;;;9.03;3.80;;;;;;;3.87;100.00;100847.81;7395360;19;20842;-36
2023/03/29 03:40:55;;;;;;;10.43;3.20;;;;;;;3.64;100.00;100824.09;7391603;19;20419;-37
2023/03/29 03:43:25;;;;;;;11.83;3.80;;;;;;;3.70;100.00;100817.66;7397522;19;20403;-37
2023/03/29 03:45:58;;;;;;;6.70;3.10;;;;;;;3.65;100.00;100805.44;7392125;19;20407;-38
2023/03/29 03:48:28;;;;;;;7.23;3.23;;;;;;;3.81;100.00;100814.22;7396603;19;20440;-37
2023/03/29 03:50:59;;;;;;;7.80;3.30;;;;;;;3.88;100.00;100797.63;7393139;19;20423;-38
2023/03/29 03:53:29;;;;;;;7.40;3.50;;;;;;;3.94;100.00;100792.09;7396075;19;20475;-36
2023/03/29 03:56:01;;;;;;;6.20;2.97;;;;;;;3.88;100.00;100783.22;7391679;19;20398;-38
2023/03/29 03:58:30;;;;;;;16.70;3.90;;;;;;;3.77;100.00;100769.72;7395144;19;20450;-38
2023/03/29 04:01:03;;;;;;;10.33;3.30;;;;;;;3.96;100.00;100768.44;7390681;19;20465;-36
2023/03/29 04:03:33;;;;;;;10.50;3.27;;;;;;;3.88;100.00;100757.69;7395036;19;20404;-36
2023/03/29 04:06:03;;;;;;;11.00;3.30;;;;;;;3.62;100.00;100758.41;7391995;19;20502;-38
2023/03/29 04:08:33;;;;;;;8.50;3.37;;;;;;;3.38;100.00;100759.34;7394203;19;20446;-37
2023/03/29 04:11:03;;;;;;;9.37;3.40;;;;;;;3.41;100.00;100762.91;7392444;19;20825;-35
2023/03/29 04:13:33;;;;;;;11.57;3.20;;;;;;;3.56;100.00;100766.53;7394650;19;20399;-36
2023/03/29 04:16:05;;;;;;;8.03;3.20;;;;;;;3.46;100.00;100757.34;7391737;19;20403;-37
2023/03/29 04:18:35;;;;;;;8.13;3.33;;;;;;;3.71;100.00;100768.38;7395249;19;20526;-36
2023/03/29 04:21:06;;;;;;;9.13;4.00;;;;;;;3.78;100.00;100763.81;7392009;19;20407;-36
2023/03/29 04:23:35;;;;;;;12.63;4.20;;;;;;;3.44;100.00;100747.81;7394227;19;20404;-36
2023/03/29 04:26:06;;;;;;;12.77;4.40;;;;;;;3.30;100.00;100752.84;7391394;19;20410;-37
2023/03/29 04:28:36;;;;;;;6.00;3.40;;;;;;;3.16;100.00;100754.41;7394965;19;20819;-36
2023/03/29 04:31:11;;;;;;;10.00;3.60;;;;;;;3.12;100.00;100760.03;7392501;19;20440;-36
2023/03/29 04:33:41;;;;;;;15.00;4.33;;;;;;;3.23;100.00;100763.38;7394879;19;20415;-36
2023/03/29 04:36:12;;;;;;;12.53;4.20;;;;;;;3.14;100.00;100770.34;7390521;19;20415;-36
2023/03/29 04:38:42;;;;;;;12.30;4.40;;;;;;;3.20;100.00;100768.25;7393673;19;20452;-37
2023/03/29 04:41:16;;;;;;;10.10;3.70;;;;;;;3.27;100.00;100760.25;7392999;19;20433;-37
2023/03/29 04:43:46;;;;;;;14.37;3.77;;;;;;;3.48;100.00;100772.75;7393289;19;20432;-36
2023/03/29 04:46:18;;;;;;;11.53;4.10;;;;;;;3.30;100.00;100752.84;7391738;19;20423;-38
2023/03/29 04:48:48;;;;;;;14.63;4.40;;;;;;;3.31;100.00;100754.59;7393864;19;20798;-41
2023/03/29 04:51:18;;;;;;;15.97;4.97;;;;;;;3.53;100.00;100765.44;7391860;19;20828;-40
2023/03/29 04:53:48;;;;;;;13.10;4.50;;;;;;;3.44;100.00;100761.44;7391110;19;20772;-39
2023/03/29 04:56:18;;;;;;;8.23;4.10;;;;;;;3.49;100.00;100772.00;7390971;19;20428;-40
2023/03/29 04:58:48;;;;;;;10.30;4.83;;;;;;;3.46;100.00;100759.91;7394173;19;20443;-40
2023/03/29 05:01:20;;;;;;;10.87;4.60;;;;;;;3.58;100.00;100767.53;7391173;19;20723;-39
2023/03/29 05:03:49;;;;;;;8.43;4.30;;;;;;;3.82;100.00;100764.03;7393494;19;20399;-37
2023/03/29 05:06:20;;;;;;;10.50;5.00;;;;;;;3.54;100.00;100750.22;7390854;19;20419;-37
2023/03/29 05:08:50;;;;;;;16.00;5.57;;;;;;;3.28;100.00;100746.72;7393096;19;20465;-36
2023/03/29 05:11:20;;;;;;;10.17;4.70;;;;;;;3.62;100.00;100768.63;7391457;19;20394;-42
2023/03/29 05:13:49;;;;;;;9.80;5.70;;;;;;;3.49;100.00;100757.56;7393408;19;20402;-35
2023/03/29 05:16:21;;;;;;;14.80;6.23;;;;;;;3.85;100.00;100787.22;7389994;19;20951;-38
2023/03/29 05:18:51;;;;;;;13.10;5.93;;;;;;;3.84;100.00;100786.31;7393239;19;20438;-38
2023/03/29 05:21:21;;;;;;;10.10;5.20;;;;;;;3.63;100.00;100762.75;7391816;19;20407;-43
2023/03/29 05:23:50;;;;;;;10.90;5.50;;;;;;;3.70;100.00;100766.63;7393237;19;20439;-36
2023/03/29 05:26:21;;;;;;;16.60;6.20;;;;;;;4.04;100.00;100779.16;7391970;19;20399;-40
2023/03/29 05:28:51;;;;;;;11.73;5.70;;;;;;;3.99;100.00;100770.31;7393425;19;20816;-37
2023/03/29 05:31:23;;;;;;;11.20;5.93;;;;;;;3.91;100.00;100757.88;7392284;19;21022;-36
2023/03/29 05:33:53;;;;;;;9.00;5.07;;;;;;;3.97;100.00;100767.66;7393196;19;20386;-37
2023/03/29 05:36:22;;;;;;;17.60;5.67;;;;;;;4.37;100.00;100769.47;7388911;19;20442;-40
2023/03/29 05:38:52;;;;;;;10.50;5.17;;;;;;;4.49;100.00;100773.59;7391950;19;20435;-39
2023/03/29 05:41:22;;;;;;;12.77;4.93;;;;;;;4.43;100.00;100772.44;7390084;19;20449;-39
2023/03/29 05:43:52;;;;;;;13.10;6.00;;;;;;;4.81;100.00;100778.28;7391886;19;20964;-44
2023/03/29 05:46:24;;;;;;;9.90;4.73;;;;;;;4.58;100.00;100761.44;7386969;19;20395;-36
2023/03/29 05:48:53;;;;;;;11.77;5.37;;;;;;;4.59;100.00;100761.56;7388534;19;20463;-40
2023/03/29 05:51:23;;;;;;;10.10;4.87;;;;;;;4.64;100.00;100748.19;7386714;19;21085;-37
2023/03/29 05:53:53;;;;;;;10.50;5.30;;;;;;;4.26;100.00;100722.75;7392894;19;20400;-40
2023/03/29 05:56:23;;;;;;;9.70;4.63;;;;;;;3.98;100.00;100722.56;7385738;19;20435;-40
2023/03/29 05:58:55;;;;;;;11.83;4.80;;;;;;;4.11;100.00;100731.94;7388176;19;20962;-37
2023/03/29 06:01:27;;;;;;;16.03;4.90;;;;;;;3.68;100.00;100732.47;7385332;19;20954;-39
2023/03/29 06:03:57;;;;;;;10.10;5.30;;;;;;;4.21;100.00;100762.44;7392334;19;20379;-39
2023/03/29 06:06:27;;;;;;;12.97;5.20;;;;;;;4.45;100.00;100763.19;7389309;19;20421;-37
2023/03/29 06:08:56;;;;;;;14.50;5.77;;;;;;;4.22;100.00;100754.00;7394527;19;20817;-37
2023/03/29 06:11:26;;;;;;;10.87;5.13;;;;;;;3.99;100.00;100749.88;7389635;19;20411;-38
2023/03/29 06:13:56;;;;;;;15.07;6.00;;;;;;;3.92;100.00;100752.03;7395332;19;20391;-36
2023/03/29 06:16:31;;;;;;;12.47;6.40;;;;;;;3.92;100.00;100754.56;7394553;19;20415;-40
2023/03/29 06:19:00;;;;;;;13.20;5.77;;;;;;;4.00;100.00;100755.06;7395304;19;20471;-37
2023/03/29 06:21:30;;;;;;;14.77;5.57;;;;;;;4.01;100.00;100753.41;7390466;19;20411;-45
2023/03/29 06:24:00;;;;;;;10.93;5.87;;;;;;;3.91;100.00;100746.81;7393891;19;20387;-37
2023/03/29 06:26:29;;;;;;;12.87;5.90;;;;;;;3.88;100.00;100755.13;7392163;19;20435;-41
2023/03/29 06:28:59;;;;;;;14.53;6.10;;;;;;;3.84;100.00;100757.38;7393518;19;20443;-37
2023/03/29 06:31:31;;;;;;;16.50;7.13;;;;;;;3.91;100.00;100765.53;7392617;19;20402;-37
2023/03/29 06:34:01;;;;;;;14.23;6.33;;;;;;;3.90;100.00;100776.53;7394163;19;20395;-36
2023/03/29 06:36:32;;;;;;;16.73;7.20;;;;;;;4.13;100.00;100800.22;7392069;19;20394;-42
2023/03/29 06:39:02;;;;;;;21.20;8.30;;;;;;;4.07;100.00;100796.34;7394005;19;20404;-39
2023/03/29 06:41:32;;;;;;;18.10;8.27;;;;;;;4.14;100.00;100786.66;7395923;19;20505;-37
2023/03/29 06:44:02;;;;;;;14.20;8.30;;;;;;;4.27;100.00;100802.84;7393712;19;20407;-36
2023/03/29 06:46:36;;;;;;;17.57;8.13;;;;;;;4.28;100.00;100794.38;7388556;19;20959;-40
2023/03/29 06:49:05;;;;;;;16.83;8.47;;;;;;;4.46;100.00;100790.50;7394100;19;20396;-36
2023/03/29 06:51:36;;;;;;;17.53;8.10;;;;;;;4.66;100.00;100798.63;7392655;19;20419;-37
2023/03/29 06:54:06;;;;;;;17.10;8.40;;;;;;;4.75;100.00;100787.22;7393749;19;20415;-36
2023/03/29 06:56:35;;;;;;;16.43;8.53;;;;;;;4.85;100.00;100785.38;7392148;19;20427;-37
2023/03/29 06:59:05;;;;;;;17.20;8.60;;;;;;;4.85;100.00;100774.25;7393882;19;20773;-36
2023/03/29 07:01:37;;;;;;;13.50;7.90;;;;;;;4.81;100.00;100762.06;7391426;19;20393;-36
2023/03/29 07:04:08;;;;;;;17.80;8.30;;;;;;;4.57;100.00;100762.25;7394022;19;20391;-36
2023/03/29 07:06:39;;;;;;;19.63;8.93;;;;;;;4.35;100.00;100749.72;7391067;19;20411;-36
2023/03/29 07:09:09;;;;;;;18.90;8.20;;;;;;;4.49;100.00;100760.81;7394144;19;20456;-37
2023/03/29 07:11:39;;;;;;;15.40;8.67;;;;;;;4.58;100.00;100764.88;7392228;19;20788;-38
2023/03/29 07:14:09;;;;;;;13.10;7.67;;;;;;;4.69;100.00;100760.50;7393723;19;20910;-35
2023/03/29 07:16:41;;;;;;;12.67;7.67;;;;;;;4.72;100.00;100758.13;7390708;19;20428;-36
2023/03/29 07:19:11;;;;;;;14.77;8.13;;;;;;;4.85;100.00;100744.47;7393610;19;20426;-38
2023/03/29 07:21:40;;;;;;;13.53;7.90;;;;;;;4.97;100.00;100743.50;7393155;19;20455;-37
2023/03/29 07:24:10;;;;;;;17.27;8.30;;;;;;;5.26;100.00;100758.16;7392305;19;20387;-37
2023/03/29 07:26:39;;;;;;;13.63;8.10;;;;;;;5.50;100.00;100760.47;7390916;19;20987;-37
2023/03/29 07:29:28;;;;;;;16.33;8.30;;;;;;;5.22;100.00;100720.34;7392817;19;20935;-37
2023/03/29 07:32:01;;;;;;;13.23;8.33;;;;;;;5.27;100.00;100736.88;7390641;19;20435;-38
2023/03/29 07:34:31;;;;;;;16.13;7.90;;;;;;;5.15;100.00;100731.00;7392629;19;20420;-41
2023/03/29 07:37:01;;;;;;;17.50;8.07;;;;;;;5.08;100.00;100721.16;7392149;19;20991;-39
2023/03/29 07:39:30;;;;;;;14.63;7.40;;;;;;;5.05;100.00;100710.72;7392632;19;20726;-41
2023/03/29 07:42:00;;;;;;;14.40;7.80;;;;;;;4.95;100.00;100714.38;7388105;19;20411;-38
2023/03/29 07:44:31;;;;;;;14.87;7.20;;;;;;;5.05;100.00;100726.97;7392570;19;20406;-37
2023/03/29 07:47:05;;;;;;;15.47;5.33;;;;;;;4.87;100.00;100734.34;7388165;19;20447;-36
2023/03/29 07:49:35;;;;;;;10.60;6.10;;;;;;;4.74;100.00;100730.13;7391959;19;20395;-38
2023/03/29 07:52:05;;;;;;;13.37;6.40;;;;;;;4.85;100.00;100735.91;7388484;19;20436;-36
2023/03/29 07:54:35;;;;;;;8.30;4.37;;;;;;;4.92;100.00;100743.19;7392535;19;20423;-36
2023/03/29 07:57:04;;;;;;;11.20;5.57;;;;;;;4.96;100.00;100732.38;7391061;19;20470;-36
2023/03/29 07:59:34;;;;;;;14.10;5.20;;;;;;;4.93;100.00;100731.31;7391853;19;20391;-36
2023/03/29 08:02:07;;;;;;;10.30;5.60;;;;;;;4.87;100.00;100726.66;7391723;19;20439;-38
2023/03/29 08:04:36;;;;;;;11.73;5.40;;;;;;;4.91;100.00;100723.53;7391808;19;20750;-36
2023/03/29 08:07:06;;;;;;;8.53;4.90;;;;;;;4.86;100.00;100717.22;7389286;19;20463;-36
2023/03/29 08:09:36;;;;;;;11.50;4.53;;;;;;;4.81;100.00;100734.84;7392364;19;20419;-40
2023/03/29 08:12:06;;;;;;;5.87;3.10;;;;;;;4.75;100.00;100730.97;7390613;19;20771;-38
2023/03/29 08:14:36;;;;;;;14.30;5.40;;;;;;;4.73;100.00;100724.09;7391463;19;20387;-36
2023/03/29 08:17:08;;;;;;;10.83;5.20;;;;;;;4.83;100.00;100729.81;7389431;19;20442;-38
2023/03/29 08:19:38;;;;;;;10.27;5.53;;;;;;;4.85;100.00;100734.25;7391750;19;20383;-36
2023/03/29 08:22:08;;;;;;;9.60;4.70;;;;;;;4.84;100.00;100731.59;7391498;19;20419;-39
2023/03/29 08:24:37;;;;;;;11.23;5.80;;;;;;;4.91;100.00;100733.75;7390989;19;20414;-37
2023/03/29 08:27:07;;;;;;;10.10;4.30;;;;;;;4.89;100.00;100730.22;7388907;19;20427;-37
2023/03/29 08:29:37;;;;;;;12.20;5.27;;;;;;;4.99;100.00;100716.34;7391582;19;20378;-36
2023/03/29 08:32:09;;;;;;;7.47;3.83;;;;;;;4.94;100.00;100718.63;7388053;19;20406;-37
2023/03/29 08:34:39;;;;;;;11.90;5.30;;;;;;;5.07;100.00;100721.97;7391064;19;20413;-36
2023/03/29 08:37:08;;;;;;;7.77;4.70;;;;;;;5.14;100.00;100711.31;7389122;19;20442;-36
2023/03/29 08:39:38;;;;;;;7.53;4.50;;;;;;;5.31;100.00;100711.47;7391082;19;20387;-36
2023/03/29 08:42:22;;;;;;;7.30;4.87;;;;;;;5.30;100.00;100707.16;7389410;19;20399;-40
2023/03/29 08:45:00;;;;;;;8.27;4.67;;;;;;;5.44;100.00;100701.22;7391052;19;20423;-37
2023/03/29 08:47:38;;;;;;;9.83;5.20;;;;;;;5.52;100.00;100696.56;7389015;19;20423;-37
2023/03/29 08:50:08;;;;;;;11.57;5.27;;;;;;;5.52;100.00;100681.22;7394644;19;20412;-38
2023/03/29 08:52:40;;;;;;;10.73;5.50;;;;;;;5.58;100.00;100676.47;7388902;19;20985;-36
2023/03/29 08:55:21;;;;;;;9.80;4.70;;;;;;;5.40;100.00;100679.66;7391573;19;20770;-39
2023/03/29 08:57:52;;;;;;;9.23;4.40;;;;;;;5.50;100.00;100678.56;7391737;19;20465;-35
2023/03/29 09:00:28;;;;;;;11.10;5.30;;;;;;;5.46;100.00;100678.28;7394214;19;20431;-36
2023/03/29 09:03:01;;;;;;;12.23;3.93;;;;;;;5.38;100.00;100667.56;7393170;19;20817;-36
2023/03/29 09:05:34;;;;;;;32.13;10.53;;;;;;;5.43;100.00;100673.84;7390739;19;20392;-37
2023/03/29 09:08:04;;;;;;;14.03;5.57;;;;;;;5.45;100.00;100676.53;7390062;19;20447;-35
2023/03/29 09:10:39;;;;;;;9.80;4.30;;;;;;;5.44;100.00;100670.50;7394038;19;20762;-37
2023/03/29 09:13:19;;;;;;;15.70;5.03;;;;;;;5.54;100.00;100677.09;7394708;19;20426;-36
2023/03/29 09:15:54;;;;;;;10.13;4.50;;;;;;;5.59;100.00;100664.56;7389603;19;20415;-38
2023/03/29 09:18:33;;;;;;;19.40;7.70;;;;;;;5.69;100.00;100672.00;7394049;19;20522;-35
2023/03/29 09:21:08;;;;;;;8.93;4.83;;;;;;;5.76;100.00;100673.25;7390617;19;20411;-36
2023/03/29 09:24:03;;;;;;;18.33;6.23;;;;;;;5.61;100.00;100657.84;7392674;19;20411;-37
2023/03/29 09:26:36;;;;;;;11.90;4.70;;;;;;;5.67;100.00;100651.44;7388297;19;20501;-36
2023/03/29 09:29:18;;;;;;;10.90;4.77;;;;;;;5.66;100.00;100646.22;7392942;19;20415;-35
2023/03/29 09:31:50;;;;;;;8.83;3.93;;;;;;;5.59;100.00;100644.09;7389100;19;20478;-37
2023/03/29 09:34:25;;;;;;;14.30;5.90;;;;;;;5.59;100.00;100654.34;7393190;19;21331;-36
2023/03/29 09:36:55;;;;;;;6.30;4.07;;;;;;;5.69;100.00;100646.41;7388582;19;20426;-37
2023/03/29 09:39:29;;;;;;;12.83;4.90;;;;;;;5.61;100.00;100645.06;7397482;19;20750;-36
2023/03/29 09:42:02;;;;;;;7.00;4.27;;;;;;;5.67;100.00;100648.00;7396322;19;20439;-38
2023/03/29 09:44:34;;;;;;;15.93;5.50;;;;;;;5.75;100.00;100641.63;7399998;19;20549;-38
2023/03/29 09:47:08;;;;;;;25.07;8.27;;;;;;;5.75;100.00;100641.63;7397179;19;20463;-36
2023/03/29 09:49:44;;;;;;;8.70;3.37;;;;;;;5.63;100.00;100635.78;7397894;19;20982;-37
2023/03/29 09:52:15;;;;;;;13.03;5.13;;;;;;;5.72;100.00;100635.47;7397768;19;20467;-38
2023/03/29 09:54:45;;;;;;;8.93;4.10;;;;;;;5.79;100.00;100635.91;7398664;19;20403;-36
2023/03/29 09:57:17;;;;;;;8.30;4.23;;;;;;;5.84;100.00;100618.25;7396016;19;20454;-39
2023/03/29 09:59:48;;;;;;;18.93;7.70;;;;;;;5.96;100.00;100615.56;7398026;19;20923;-40
2023/03/29 10:02:21;;;;;;;34.30;9.90;;;;;;;6.14;100.00;100609.72;7397403;19;21350;-36
2023/03/29 10:04:59;;;;;;;10.30;4.80;;;;;;;6.21;100.00;100596.50;7397654;19;20411;-36
2023/03/29 10:07:38;;;;;;;9.20;5.77;;;;;;;6.20;100.00;100590.47;7396315;19;20458;-38
2023/03/29 10:10:09;;;;;;;11.40;5.63;;;;;;;6.30;100.00;100586.75;7398626;19;20419;-36
2023/03/29 10:12:39;;;;;;;8.73;4.07;;;;;;;6.23;100.00;100584.66;7397142;19;20447;-36
2023/03/29 10:15:16;;;;;;;8.87;5.20;;;;;;;6.30;100.00;100581.63;7399753;19;20800;-36
2023/03/29 10:18:02;;;;;;;18.33;6.10;;;;;;;6.47;100.00;100586.84;7397234;19;20434;-36
2023/03/29 10:20:37;;;;;;;12.03;6.40;;;;;;;6.47;100.00;100576.56;7402292;19;20426;-40
2023/03/29 10:23:08;;;;;;;10.93;4.80;;;;;;;6.34;100.00;100577.56;7400095;19;20815;-37
2023/03/29 10:25:40;;;;;;;17.93;6.10;;;;;;;6.35;100.00;100585.34;7396343;19;20958;-36
2023/03/29 10:28:14;;;;;;;18.97;6.90;;;;;;;6.25;100.00;100587.31;7398356;19;20479;-35
2023/03/29 10:30:47;;;;;;;9.83;5.23;;;;;;;6.24;100.00;100586.41;7395659;19;20628;-35
2023/03/29 10:33:18;;;;;;;13.47;6.50;;;;;;;6.42;100.00;100591.69;7398427;19;20532;-39
2023/03/29 10:35:51;;;;;;;10.77;4.87;;;;;;;6.43;100.00;100588.34;7394749;19;20415;-37
2023/03/29 10:38:22;;;;;;;8.43;5.03;;;;;;;6.58;100.00;100585.75;7398471;19;20495;-36
2023/03/29 10:40:53;;;;;;;10.10;4.77;;;;;;;6.45;100.00;100580.72;7395323;19;20410;-37
2023/03/29 10:43:25;;;;;;;12.50;5.60;;;;;;;6.46;100.00;100582.50;7398636;19;20788;-38
2023/03/29 10:45:58;;;;;;;10.40;4.90;;;;;;;6.49;100.00;100577.53;7394390;19;20431;-37
2023/03/29 10:48:32;;;;;;;13.10;5.20;;;;;;;6.47;100.00;100581.72;7398141;19;20444;-36
2023/03/29 10:51:06;;;;;;;13.30;6.37;;;;;;;6.68;100.00;100581.13;7369843;19;20431;-36
2023/03/29 10:53:38;;;;;;;9.60;6.23;;;;;;;6.71;100.00;100583.84;7394646;19;20413;-35
2023/03/29 10:56:15;;;;;;;8.70;3.63;;;;;;;6.72;100.00;100585.63;7390606;19;20443;-36
2023/03/29 10:58:57;;;;;;;10.40;5.53;;;;;;;6.79;100.00;100597.97;7396841;19;20463;-35
2023/03/29 11:01:33;;;;;;;9.70;4.77;;;;;;;6.64;100.00;100598.00;7395828;19;20467;-35
2023/03/29 11:04:11;;;;;;;13.97;6.67;;;;;;;6.59;100.00;100599.44;7396562;19;20411;-36
2023/03/29 11:06:48;;;;;;;13.23;6.93;;;;;;;6.72;100.00;100601.00;7393338;19;20468;-36
2023/03/29 11:09:21;;;;;;;26.90;7.60;;;;;;;6.91;100.00;100602.00;7396048;19;21058;-37
2023/03/29 11:12:00;;;;;;;12.20;5.70;;;;;;;6.97;100.00;100592.09;7394428;19;20443;-35
2023/03/29 11:14:53;;;;;;;9.37;4.43;;;;;;;6.92;100.00;100580.69;7395763;19;20403;-38
2023/03/29 11:17:31;;;;;;;11.90;6.57;;;;;;;6.89;100.00;100577.13;7392068;19;20459;-35
2023/03/29 11:20:13;;;;;;;18.17;7.97;;;;;;;6.85;100.00;100584.59;7396340;19;20955;-35
2023/03/29 11:22:50;;;;;;;32.13;11.80;;;;;;;6.80;100.00;100610.00;7393779;19;20472;-36
2023/03/29 11:25:29;;;;;;;23.07;8.80;;;;;;;6.78;100.00;100627.00;7396491;19;21033;-35
2023/03/29 11:28:03;;;;;;;13.50;7.00;;;;;;;6.66;100.00;100636.56;7394030;19;20836;-36
2023/03/29 11:30:39;;;;;;;16.27;7.03;;;;;;;6.73;100.00;100648.94;7397342;19;20770;-35
2023/03/29 11:33:23;;;;;;;15.63;7.47;;;;;;;6.86;100.00;100653.94;7398114;19;20447;-35
2023/03/29 11:35:55;;;;;;;14.70;6.93;;;;;;;6.74;100.00;100651.59;7392130;19;20412;-36
2023/03/29 11:38:35;;;;;;;15.10;7.10;;;;;;;6.75;100.00;100658.47;7397357;19;20463;-36
2023/03/29 11:41:09;;;;;;;14.60;5.70;;;;;;;6.71;100.00;100671.00;7393450;19;20451;-35
2023/03/29 11:43:41;;;;;;;14.97;7.23;;;;;;;6.70;100.00;100684.63;7395585;19;20411;-36